sensor_id;sensor_type;location;lat;lon;timestamp;P1;durP1;ratioP1;P2;durP2;ratioP2
21777;SDS011;11050;52.222;20.916;2023-06-24T00:01:50;6.95;;;5.25;;
21777;SDS011;11050;52.222;20.916;2023-06-24T00:04:16;8.63;;;5.57;;
21777;SDS011;11050;52.222;20.916;2023-06-24T00:06:44;7.40;;;5.50;;
21777;SDS011;11050;52.222;20.916;2023-06-24T00:09:09;7.75;;;5.43;;
21777;SDS011;11050;52.222;20.916;2023-06-24T00:11:35;8.18;;;4.95;;
21777;SDS011;11050;52.222;20.916;2023-06-24T00:14:01;9.07;;;5.97;;
21777;SDS011;11050;52.222;20.916;2023-06-24T00:16:27;7.53;;;5.45;;
21777;SDS011;11050;52.222;20.916;2023-06-24T00:18:56;10.13;;;6.13;;
21777;SDS011;11050;52.222;20.916;2023-06-24T00:21:23;7.95;;;5.72;;
21777;SDS011;11050;52.222;20.916;2023-06-24T00:23:55;6.32;;;4.97;;
21777;SDS011;11050;52.222;20.916;2023-06-24T00:26:27;6.18;;;5.03;;
21777;SDS011;11050;52.222;20.916;2023-06-24T00:28:53;6.35;;;4.88;;
21777;SDS011;11050;52.222;20.916;2023-06-24T00:31:19;6.22;;;5.13;;
21777;SDS011;11050;52.222;20.916;2023-06-24T00:33:45;7.10;;;4.82;;
21777;SDS011;11050;52.222;20.916;2023-06-24T00:36:12;6.90;;;5.40;;
21777;SDS011;11050;52.222;20.916;2023-06-24T00:38:38;7.10;;;5.05;;
21777;SDS011;11050;52.222;20.916;2023-06-24T00:41:04;8.07;;;5.40;;
21777;SDS011;11050;52.222;20.916;2023-06-24T00:43:31;10.65;;;4.78;;
21777;SDS011;11050;52.222;20.916;2023-06-24T00:45:57;6.57;;;4.63;;
21777;SDS011;11050;52.222;20.916;2023-06-24T00:48:22;7.65;;;5.13;;
21777;SDS011;11050;52.222;20.916;2023-06-24T00:50:49;6.07;;;5.13;;
21777;SDS011;11050;52.222;20.916;2023-06-24T00:53:16;6.13;;;4.95;;
21777;SDS011;11050;52.222;20.916;2023-06-24T00:55:44;6.57;;;5.10;;
21777;SDS011;11050;52.222;20.916;2023-06-24T00:58:11;10.45;;;5.70;;
21777;SDS011;11050;52.222;20.916;2023-06-24T01:00:45;5.90;;;4.93;;
21777;SDS011;11050;52.222;20.916;2023-06-24T01:03:22;6.97;;;5.30;;
21777;SDS011;11050;52.222;20.916;2023-06-24T01:05:50;5.78;;;5.18;;
21777;SDS011;11050;52.222;20.916;2023-06-24T01:08:18;5.50;;;4.93;;
21777;SDS011;11050;52.222;20.916;2023-06-24T01:10:44;8.32;;;5.15;;
21777;SDS011;11050;52.222;20.916;2023-06-24T01:13:10;9.88;;;5.63;;
21777;SDS011;11050;52.222;20.916;2023-06-24T01:15:36;6.07;;;5.13;;
21777;SDS011;11050;52.222;20.916;2023-06-24T01:20:44;9.43;;;5.38;;
21777;SDS011;11050;52.222;20.916;2023-06-24T01:32:08;7.20;;;5.07;;
21777;SDS011;11050;52.222;20.916;2023-06-24T01:37:21;5.97;;;4.43;;
21777;SDS011;11050;52.222;20.916;2023-06-24T01:40:12;5.43;;;4.75;;
21777;SDS011;11050;52.222;20.916;2023-06-24T01:42:47;6.07;;;4.95;;
21777;SDS011;11050;52.222;20.916;2023-06-24T01:45:22;6.40;;;4.80;;
21777;SDS011;11050;52.222;20.916;2023-06-24T01:48:02;8.77;;;5.38;;
21777;SDS011;11050;52.222;20.916;2023-06-24T01:50:42;6.05;;;5.18;;
21777;SDS011;11050;52.222;20.916;2023-06-24T01:53:20;8.93;;;5.07;;
21777;SDS011;11050;52.222;20.916;2023-06-24T01:55:47;8.20;;;5.35;;
21777;SDS011;11050;52.222;20.916;2023-06-24T01:58:16;7.93;;;5.15;;
21777;SDS011;11050;52.222;20.916;2023-06-24T02:00:44;9.65;;;5.13;;
21777;SDS011;11050;52.222;20.916;2023-06-24T02:03:11;7.97;;;5.13;;
21777;SDS011;11050;52.222;20.916;2023-06-24T02:05:39;9.23;;;5.82;;
21777;SDS011;11050;52.222;20.916;2023-06-24T02:08:08;7.85;;;6.30;;
21777;SDS011;11050;52.222;20.916;2023-06-24T02:10:38;9.75;;;6.07;;
21777;SDS011;11050;52.222;20.916;2023-06-24T02:13:08;7.45;;;6.07;;
21777;SDS011;11050;52.222;20.916;2023-06-24T02:15:36;9.68;;;5.93;;
21777;SDS011;11050;52.222;20.916;2023-06-24T02:18:04;9.52;;;6.13;;
21777;SDS011;11050;52.222;20.916;2023-06-24T02:20:34;6.57;;;5.75;;
21777;SDS011;11050;52.222;20.916;2023-06-24T02:23:03;6.72;;;5.97;;
21777;SDS011;11050;52.222;20.916;2023-06-24T02:25:33;8.63;;;5.93;;
21777;SDS011;11050;52.222;20.916;2023-06-24T02:28:03;6.50;;;5.60;;
21777;SDS011;11050;52.222;20.916;2023-06-24T02:30:30;7.40;;;5.60;;
21777;SDS011;11050;52.222;20.916;2023-06-24T02:32:56;7.82;;;5.88;;
21777;SDS011;11050;52.222;20.916;2023-06-24T02:35:22;8.57;;;5.60;;
21777;SDS011;11050;52.222;20.916;2023-06-24T02:37:48;7.55;;;5.85;;
21777;SDS011;11050;52.222;20.916;2023-06-24T02:40:14;10.00;;;6.30;;
21777;SDS011;11050;52.222;20.916;2023-06-24T02:42:40;7.00;;;5.53;;
21777;SDS011;11050;52.222;20.916;2023-06-24T02:45:06;7.15;;;6.03;;
21777;SDS011;11050;52.222;20.916;2023-06-24T02:47:33;6.47;;;5.45;;
21777;SDS011;11050;52.222;20.916;2023-06-24T02:50:02;10.77;;;6.75;;
21777;SDS011;11050;52.222;20.916;2023-06-24T02:52:30;7.72;;;5.78;;
21777;SDS011;11050;52.222;20.916;2023-06-24T02:54:57;8.52;;;6.18;;
21777;SDS011;11050;52.222;20.916;2023-06-24T02:57:24;10.43;;;6.30;;
21777;SDS011;11050;52.222;20.916;2023-06-24T02:59:51;7.38;;;5.78;;
21777;SDS011;11050;52.222;20.916;2023-06-24T03:02:17;8.43;;;5.40;;
21777;SDS011;11050;52.222;20.916;2023-06-24T03:04:43;8.98;;;6.55;;
21777;SDS011;11050;52.222;20.916;2023-06-24T03:07:10;7.75;;;5.78;;
21777;SDS011;11050;52.222;20.916;2023-06-24T03:09:37;7.07;;;5.82;;
21777;SDS011;11050;52.222;20.916;2023-06-24T03:12:03;7.18;;;5.63;;
21777;SDS011;11050;52.222;20.916;2023-06-24T03:14:31;8.93;;;6.28;;
21777;SDS011;11050;52.222;20.916;2023-06-24T03:16:57;11.48;;;5.68;;
21777;SDS011;11050;52.222;20.916;2023-06-24T03:19:23;8.95;;;6.15;;
21777;SDS011;11050;52.222;20.916;2023-06-24T03:21:48;9.95;;;5.88;;
21777;SDS011;11050;52.222;20.916;2023-06-24T03:24:14;8.90;;;6.05;;
21777;SDS011;11050;52.222;20.916;2023-06-24T03:26:40;7.53;;;5.95;;
21777;SDS011;11050;52.222;20.916;2023-06-24T03:29:06;7.88;;;6.28;;
21777;SDS011;11050;52.222;20.916;2023-06-24T03:31:32;7.50;;;6.10;;
21777;SDS011;11050;52.222;20.916;2023-06-24T03:33:58;8.30;;;6.32;;
21777;SDS011;11050;52.222;20.916;2023-06-24T03:36:24;8.38;;;5.78;;
21777;SDS011;11050;52.222;20.916;2023-06-24T03:38:50;8.20;;;6.15;;
21777;SDS011;11050;52.222;20.916;2023-06-24T03:41:16;7.13;;;5.93;;
21777;SDS011;11050;52.222;20.916;2023-06-24T03:43:42;9.77;;;5.82;;
21777;SDS011;11050;52.222;20.916;2023-06-24T03:46:10;8.70;;;6.10;;
21777;SDS011;11050;52.222;20.916;2023-06-24T03:48:36;7.28;;;6.18;;
21777;SDS011;11050;52.222;20.916;2023-06-24T03:51:02;9.10;;;6.53;;
21777;SDS011;11050;52.222;20.916;2023-06-24T03:53:28;8.35;;;5.85;;
21777;SDS011;11050;52.222;20.916;2023-06-24T03:55:54;9.07;;;6.85;;
21777;SDS011;11050;52.222;20.916;2023-06-24T03:58:19;8.30;;;6.70;;
21777;SDS011;11050;52.222;20.916;2023-06-24T04:00:46;10.77;;;7.05;;
21777;SDS011;11050;52.222;20.916;2023-06-24T04:03:14;7.55;;;6.47;;
21777;SDS011;11050;52.222;20.916;2023-06-24T04:05:43;8.65;;;7.03;;
21777;SDS011;11050;52.222;20.916;2023-06-24T04:08:09;8.80;;;6.82;;
21777;SDS011;11050;52.222;20.916;2023-06-24T04:10:35;8.45;;;6.38;;
21777;SDS011;11050;52.222;20.916;2023-06-24T04:13:01;8.13;;;6.55;;
21777;SDS011;11050;52.222;20.916;2023-06-24T04:15:27;11.15;;;6.38;;
21777;SDS011;11050;52.222;20.916;2023-06-24T04:17:52;8.10;;;5.93;;
21777;SDS011;11050;52.222;20.916;2023-06-24T04:20:18;9.68;;;6.90;;
21777;SDS011;11050;52.222;20.916;2023-06-24T04:22:44;10.02;;;6.50;;
21777;SDS011;11050;52.222;20.916;2023-06-24T04:25:09;7.53;;;6.35;;
21777;SDS011;11050;52.222;20.916;2023-06-24T04:27:36;10.55;;;6.40;;
21777;SDS011;11050;52.222;20.916;2023-06-24T04:30:02;13.30;;;7.22;;
21777;SDS011;11050;52.222;20.916;2023-06-24T04:32:29;8.02;;;6.38;;
21777;SDS011;11050;52.222;20.916;2023-06-24T04:34:55;8.85;;;6.28;;
21777;SDS011;11050;52.222;20.916;2023-06-24T04:37:22;9.13;;;6.97;;
21777;SDS011;11050;52.222;20.916;2023-06-24T04:39:48;7.75;;;6.07;;
21777;SDS011;11050;52.222;20.916;2023-06-24T04:42:14;6.85;;;6.18;;
21777;SDS011;11050;52.222;20.916;2023-06-24T04:44:40;8.18;;;5.88;;
21777;SDS011;11050;52.222;20.916;2023-06-24T04:47:05;7.88;;;6.32;;
21777;SDS011;11050;52.222;20.916;2023-06-24T04:49:31;8.85;;;6.28;;
21777;SDS011;11050;52.222;20.916;2023-06-24T04:51:59;8.45;;;5.95;;
21777;SDS011;11050;52.222;20.916;2023-06-24T04:54:26;8.55;;;6.03;;
21777;SDS011;11050;52.222;20.916;2023-06-24T04:56:52;7.78;;;6.13;;
21777;SDS011;11050;52.222;20.916;2023-06-24T04:59:20;8.35;;;5.57;;
21777;SDS011;11050;52.222;20.916;2023-06-24T05:01:46;8.52;;;5.75;;
21777;SDS011;11050;52.222;20.916;2023-06-24T05:04:12;6.85;;;5.22;;
21777;SDS011;11050;52.222;20.916;2023-06-24T05:06:38;7.22;;;5.30;;
21777;SDS011;11050;52.222;20.916;2023-06-24T05:09:04;7.75;;;5.90;;
21777;SDS011;11050;52.222;20.916;2023-06-24T05:11:29;8.10;;;6.07;;
21777;SDS011;11050;52.222;20.916;2023-06-24T05:13:55;8.38;;;5.78;;
21777;SDS011;11050;52.222;20.916;2023-06-24T05:16:22;8.07;;;5.53;;
21777;SDS011;11050;52.222;20.916;2023-06-24T05:18:49;8.70;;;5.18;;
21777;SDS011;11050;52.222;20.916;2023-06-24T05:21:15;7.18;;;4.78;;
21777;SDS011;11050;52.222;20.916;2023-06-24T05:23:41;6.97;;;5.30;;
21777;SDS011;11050;52.222;20.916;2023-06-24T05:26:07;5.88;;;4.72;;
21777;SDS011;11050;52.222;20.916;2023-06-24T05:28:32;5.70;;;4.60;;
21777;SDS011;11050;52.222;20.916;2023-06-24T05:30:58;6.90;;;4.65;;
21777;SDS011;11050;52.222;20.916;2023-06-24T05:33:24;8.23;;;5.10;;
21777;SDS011;11050;52.222;20.916;2023-06-24T05:35:50;7.18;;;5.28;;
21777;SDS011;11050;52.222;20.916;2023-06-24T05:38:16;7.65;;;4.72;;
21777;SDS011;11050;52.222;20.916;2023-06-24T05:40:42;7.28;;;4.88;;
21777;SDS011;11050;52.222;20.916;2023-06-24T05:43:07;6.47;;;4.72;;
21777;SDS011;11050;52.222;20.916;2023-06-24T05:45:33;7.22;;;5.13;;
21777;SDS011;11050;52.222;20.916;2023-06-24T05:47:59;7.97;;;5.95;;
21777;SDS011;11050;52.222;20.916;2023-06-24T05:50:25;10.30;;;6.00;;
21777;SDS011;11050;52.222;20.916;2023-06-24T05:52:50;9.25;;;5.13;;
21777;SDS011;11050;52.222;20.916;2023-06-24T05:55:16;10.38;;;6.13;;
21777;SDS011;11050;52.222;20.916;2023-06-24T05:57:42;8.93;;;5.32;;
21777;SDS011;11050;52.222;20.916;2023-06-24T06:00:07;7.30;;;5.60;;
21777;SDS011;11050;52.222;20.916;2023-06-24T06:02:34;10.27;;;5.40;;
21777;SDS011;11050;52.222;20.916;2023-06-24T06:05:00;7.80;;;5.38;;
21777;SDS011;11050;52.222;20.916;2023-06-24T06:07:26;8.80;;;5.70;;
21777;SDS011;11050;52.222;20.916;2023-06-24T06:09:52;7.13;;;5.72;;
21777;SDS011;11050;52.222;20.916;2023-06-24T06:12:18;10.75;;;5.90;;
21777;SDS011;11050;52.222;20.916;2023-06-24T06:14:43;7.05;;;5.57;;
21777;SDS011;11050;52.222;20.916;2023-06-24T06:17:09;6.85;;;4.90;;
21777;SDS011;11050;52.222;20.916;2023-06-24T06:19:35;8.63;;;5.82;;
21777;SDS011;11050;52.222;20.916;2023-06-24T06:22:00;9.02;;;5.55;;
21777;SDS011;11050;52.222;20.916;2023-06-24T06:24:26;7.93;;;5.63;;
21777;SDS011;11050;52.222;20.916;2023-06-24T06:26:52;6.90;;;5.15;;
21777;SDS011;11050;52.222;20.916;2023-06-24T06:29:18;6.57;;;5.55;;
21777;SDS011;11050;52.222;20.916;2023-06-24T06:31:43;8.85;;;5.07;;
21777;SDS011;11050;52.222;20.916;2023-06-24T06:34:09;6.72;;;5.65;;
21777;SDS011;11050;52.222;20.916;2023-06-24T06:36:35;7.53;;;5.13;;
21777;SDS011;11050;52.222;20.916;2023-06-24T06:39:01;7.72;;;4.93;;
21777;SDS011;11050;52.222;20.916;2023-06-24T06:41:27;6.85;;;4.82;;
21777;SDS011;11050;52.222;20.916;2023-06-24T06:43:53;6.55;;;5.57;;
21777;SDS011;11050;52.222;20.916;2023-06-24T06:46:19;6.25;;;4.95;;
21777;SDS011;11050;52.222;20.916;2023-06-24T06:48:45;6.94;;;4.84;;
21777;SDS011;11050;52.222;20.916;2023-06-24T06:51:11;7.40;;;5.18;;
21777;SDS011;11050;52.222;20.916;2023-06-24T06:53:38;6.80;;;5.18;;
21777;SDS011;11050;52.222;20.916;2023-06-24T06:56:04;6.70;;;5.28;;
21777;SDS011;11050;52.222;20.916;2023-06-24T06:58:30;7.03;;;5.20;;
21777;SDS011;11050;52.222;20.916;2023-06-24T07:00:55;5.60;;;5.03;;
21777;SDS011;11050;52.222;20.916;2023-06-24T07:03:26;7.03;;;5.38;;
21777;SDS011;11050;52.222;20.916;2023-06-24T07:05:53;7.53;;;5.55;;
21777;SDS011;11050;52.222;20.916;2023-06-24T07:08:19;7.68;;;5.25;;
21777;SDS011;11050;52.222;20.916;2023-06-24T07:10:44;6.57;;;5.32;;
21777;SDS011;11050;52.222;20.916;2023-06-24T07:13:10;8.63;;;5.72;;
21777;SDS011;11050;52.222;20.916;2023-06-24T07:15:36;6.82;;;5.80;;
21777;SDS011;11050;52.222;20.916;2023-06-24T07:18:01;5.78;;;5.05;;
21777;SDS011;11050;52.222;20.916;2023-06-24T07:20:27;6.60;;;5.40;;
21777;SDS011;11050;52.222;20.916;2023-06-24T07:22:53;8.80;;;5.93;;
21777;SDS011;11050;52.222;20.916;2023-06-24T07:25:19;8.23;;;5.65;;
21777;SDS011;11050;52.222;20.916;2023-06-24T07:27:44;6.68;;;5.55;;
21777;SDS011;11050;52.222;20.916;2023-06-24T07:30:10;8.07;;;5.43;;
21777;SDS011;11050;52.222;20.916;2023-06-24T07:32:36;7.57;;;5.60;;
21777;SDS011;11050;52.222;20.916;2023-06-24T07:35:02;6.93;;;5.35;;
21777;SDS011;11050;52.222;20.916;2023-06-24T07:37:28;8.05;;;5.07;;
21777;SDS011;11050;52.222;20.916;2023-06-24T07:39:54;7.90;;;4.65;;
21777;SDS011;11050;52.222;20.916;2023-06-24T07:42:19;6.85;;;4.68;;
21777;SDS011;11050;52.222;20.916;2023-06-24T07:44:45;6.43;;;5.13;;
21777;SDS011;11050;52.222;20.916;2023-06-24T07:47:16;7.47;;;4.97;;
21777;SDS011;11050;52.222;20.916;2023-06-24T07:49:43;5.82;;;4.63;;
21777;SDS011;11050;52.222;20.916;2023-06-24T07:52:09;8.27;;;5.13;;
21777;SDS011;11050;52.222;20.916;2023-06-24T07:54:35;5.38;;;4.88;;
21777;SDS011;11050;52.222;20.916;2023-06-24T07:57:00;5.88;;;4.60;;
21777;SDS011;11050;52.222;20.916;2023-06-24T07:59:27;6.70;;;4.82;;
21777;SDS011;11050;52.222;20.916;2023-06-24T08:01:52;7.88;;;5.22;;
21777;SDS011;11050;52.222;20.916;2023-06-24T08:04:18;7.57;;;4.82;;
21777;SDS011;11050;52.222;20.916;2023-06-24T08:06:44;8.52;;;5.13;;
21777;SDS011;11050;52.222;20.916;2023-06-24T08:09:13;8.27;;;5.30;;
21777;SDS011;11050;52.222;20.916;2023-06-24T08:11:41;6.10;;;5.13;;
21777;SDS011;11050;52.222;20.916;2023-06-24T08:14:08;5.65;;;4.72;;
21777;SDS011;11050;52.222;20.916;2023-06-24T08:16:33;6.00;;;4.72;;
21777;SDS011;11050;52.222;20.916;2023-06-24T08:18:59;5.90;;;4.47;;
21777;SDS011;11050;52.222;20.916;2023-06-24T08:21:25;5.90;;;4.15;;
21777;SDS011;11050;52.222;20.916;2023-06-24T08:23:51;4.80;;;4.05;;
21777;SDS011;11050;52.222;20.916;2023-06-24T08:26:17;4.68;;;3.65;;
21777;SDS011;11050;52.222;20.916;2023-06-24T08:28:46;4.20;;;3.75;;
21777;SDS011;11050;52.222;20.916;2023-06-24T08:31:13;5.97;;;4.13;;
21777;SDS011;11050;52.222;20.916;2023-06-24T08:33:41;4.88;;;4.38;;
21777;SDS011;11050;52.222;20.916;2023-06-24T08:36:11;4.97;;;4.47;;
21777;SDS011;11050;52.222;20.916;2023-06-24T08:38:37;4.65;;;4.25;;
21777;SDS011;11050;52.222;20.916;2023-06-24T08:41:03;6.93;;;4.35;;
21777;SDS011;11050;52.222;20.916;2023-06-24T08:43:29;5.63;;;4.65;;
21777;SDS011;11050;52.222;20.916;2023-06-24T08:45:54;4.50;;;4.10;;
21777;SDS011;11050;52.222;20.916;2023-06-24T08:48:20;4.55;;;4.10;;
21777;SDS011;11050;52.222;20.916;2023-06-24T08:50:50;5.68;;;3.95;;
21777;SDS011;11050;52.222;20.916;2023-06-24T08:53:21;5.18;;;4.60;;
21777;SDS011;11050;52.222;20.916;2023-06-24T08:55:47;5.13;;;4.22;;
21777;SDS011;11050;52.222;20.916;2023-06-24T08:58:18;6.65;;;4.28;;
21777;SDS011;11050;52.222;20.916;2023-06-24T09:00:44;5.15;;;4.30;;
21777;SDS011;11050;52.222;20.916;2023-06-24T09:03:09;6.07;;;4.25;;
21777;SDS011;11050;52.222;20.916;2023-06-24T09:05:35;5.13;;;4.28;;
21777;SDS011;11050;52.222;20.916;2023-06-24T09:08:01;5.03;;;4.10;;
21777;SDS011;11050;52.222;20.916;2023-06-24T09:13:01;6.30;;;4.27;;
21777;SDS011;11050;52.222;20.916;2023-06-24T09:15:38;6.57;;;4.05;;
21777;SDS011;11050;52.222;20.916;2023-06-24T09:18:04;4.68;;;4.20;;
21777;SDS011;11050;52.222;20.916;2023-06-24T09:20:31;6.28;;;4.40;;
21777;SDS011;11050;52.222;20.916;2023-06-24T09:23:02;7.82;;;4.30;;
21777;SDS011;11050;52.222;20.916;2023-06-24T09:25:30;7.00;;;4.47;;
21777;SDS011;11050;52.222;20.916;2023-06-24T09:28:00;4.97;;;4.45;;
21777;SDS011;11050;52.222;20.916;2023-06-24T09:30:27;5.55;;;4.18;;
21777;SDS011;11050;52.222;20.916;2023-06-24T09:32:53;6.93;;;4.97;;
21777;SDS011;11050;52.222;20.916;2023-06-24T09:35:21;5.85;;;4.88;;
21777;SDS011;11050;52.222;20.916;2023-06-24T09:37:55;6.18;;;4.60;;
21777;SDS011;11050;52.222;20.916;2023-06-24T09:40:24;6.32;;;5.10;;
21777;SDS011;11050;52.222;20.916;2023-06-24T09:42:54;6.82;;;4.25;;
21777;SDS011;11050;52.222;20.916;2023-06-24T09:45:29;5.82;;;4.43;;
21777;SDS011;11050;52.222;20.916;2023-06-24T09:47:55;5.68;;;4.40;;
21777;SDS011;11050;52.222;20.916;2023-06-24T09:50:25;4.80;;;4.32;;
21777;SDS011;11050;52.222;20.916;2023-06-24T09:52:51;5.63;;;4.57;;
21777;SDS011;11050;52.222;20.916;2023-06-24T09:55:21;6.65;;;4.32;;
21777;SDS011;11050;52.222;20.916;2023-06-24T09:57:50;7.57;;;4.75;;
21777;SDS011;11050;52.222;20.916;2023-06-24T10:00:19;4.75;;;4.25;;
21777;SDS011;11050;52.222;20.916;2023-06-24T10:02:46;6.78;;;4.10;;
21777;SDS011;11050;52.222;20.916;2023-06-24T10:05:14;4.18;;;3.78;;
21777;SDS011;11050;52.222;20.916;2023-06-24T10:07:40;6.05;;;4.20;;
21777;SDS011;11050;52.222;20.916;2023-06-24T10:10:07;5.18;;;4.55;;
21777;SDS011;11050;52.222;20.916;2023-06-24T10:12:36;5.05;;;4.30;;
21777;SDS011;11050;52.222;20.916;2023-06-24T10:15:03;5.00;;;4.38;;
21777;SDS011;11050;52.222;20.916;2023-06-24T10:17:31;6.70;;;4.68;;
21777;SDS011;11050;52.222;20.916;2023-06-24T10:19:56;7.05;;;4.50;;
21777;SDS011;11050;52.222;20.916;2023-06-24T10:22:22;4.90;;;4.22;;
21777;SDS011;11050;52.222;20.916;2023-06-24T10:24:53;4.82;;;4.22;;
21777;SDS011;11050;52.222;20.916;2023-06-24T10:27:22;5.68;;;4.15;;
21777;SDS011;11050;52.222;20.916;2023-06-24T10:29:49;6.10;;;4.35;;
21777;SDS011;11050;52.222;20.916;2023-06-24T10:32:18;7.20;;;5.05;;
21777;SDS011;11050;52.222;20.916;2023-06-24T10:34:46;8.00;;;5.25;;
21777;SDS011;11050;52.222;20.916;2023-06-24T10:37:20;5.88;;;4.65;;
21777;SDS011;11050;52.222;20.916;2023-06-24T10:42:29;7.07;;;4.90;;
21777;SDS011;11050;52.222;20.916;2023-06-24T10:47:34;5.15;;;4.50;;
21777;SDS011;11050;52.222;20.916;2023-06-24T10:50:12;7.22;;;4.63;;
21777;SDS011;11050;52.222;20.916;2023-06-24T10:52:48;7.70;;;4.88;;
21777;SDS011;11050;52.222;20.916;2023-06-24T10:55:22;7.22;;;5.50;;
21777;SDS011;11050;52.222;20.916;2023-06-24T10:57:50;8.18;;;4.88;;
21777;SDS011;11050;52.222;20.916;2023-06-24T11:00:16;5.55;;;4.40;;
21777;SDS011;11050;52.222;20.916;2023-06-24T11:02:43;5.05;;;4.55;;
21777;SDS011;11050;52.222;20.916;2023-06-24T11:05:09;6.03;;;4.43;;
21777;SDS011;11050;52.222;20.916;2023-06-24T11:07:35;5.78;;;4.35;;
21777;SDS011;11050;52.222;20.916;2023-06-24T11:10:07;9.65;;;4.97;;
21777;SDS011;11050;52.222;20.916;2023-06-24T11:12:37;6.22;;;5.20;;
21777;SDS011;11050;52.222;20.916;2023-06-24T11:15:05;7.00;;;5.50;;
21777;SDS011;11050;52.222;20.916;2023-06-24T11:17:34;6.88;;;4.80;;
21777;SDS011;11050;52.222;20.916;2023-06-24T11:20:01;6.35;;;5.00;;
21777;SDS011;11050;52.222;20.916;2023-06-24T11:22:33;8.27;;;5.05;;
21777;SDS011;11050;52.222;20.916;2023-06-24T11:24:59;5.60;;;5.03;;
21777;SDS011;11050;52.222;20.916;2023-06-24T11:27:25;5.60;;;4.88;;
21777;SDS011;11050;52.222;20.916;2023-06-24T11:29:54;7.72;;;5.43;;
21777;SDS011;11050;52.222;20.916;2023-06-24T11:32:23;9.15;;;5.50;;
21777;SDS011;11050;52.222;20.916;2023-06-24T11:34:49;5.88;;;5.28;;
21777;SDS011;11050;52.222;20.916;2023-06-24T11:37:17;5.93;;;5.32;;
21777;SDS011;11050;52.222;20.916;2023-06-24T11:39:44;6.63;;;5.47;;
21777;SDS011;11050;52.222;20.916;2023-06-24T11:42:24;9.13;;;5.80;;
21777;SDS011;11050;52.222;20.916;2023-06-24T11:44:50;10.02;;;5.97;;
21777;SDS011;11050;52.222;20.916;2023-06-24T11:47:16;8.00;;;5.53;;
21777;SDS011;11050;52.222;20.916;2023-06-24T11:49:51;6.85;;;5.97;;
21777;SDS011;11050;52.222;20.916;2023-06-24T11:52:27;7.22;;;5.82;;
21777;SDS011;11050;52.222;20.916;2023-06-24T11:55:03;7.97;;;6.22;;
21777;SDS011;11050;52.222;20.916;2023-06-24T12:00:23;6.40;;;5.55;;
21777;SDS011;11050;52.222;20.916;2023-06-24T12:03:11;8.48;;;5.88;;
21777;SDS011;11050;52.222;20.916;2023-06-24T12:05:37;7.78;;;5.40;;
21777;SDS011;11050;52.222;20.916;2023-06-24T12:08:10;6.75;;;5.28;;
21777;SDS011;11050;52.222;20.916;2023-06-24T12:10:38;7.95;;;5.55;;
21777;SDS011;11050;52.222;20.916;2023-06-24T12:13:04;8.95;;;6.20;;
21777;SDS011;11050;52.222;20.916;2023-06-24T12:15:31;6.97;;;5.30;;
21777;SDS011;11050;52.222;20.916;2023-06-24T12:17:57;6.57;;;5.53;;
21777;SDS011;11050;52.222;20.916;2023-06-24T12:20:24;6.30;;;5.15;;
21777;SDS011;11050;52.222;20.916;2023-06-24T12:22:51;8.05;;;5.20;;
21777;SDS011;11050;52.222;20.916;2023-06-24T12:25:17;5.88;;;5.25;;
21777;SDS011;11050;52.222;20.916;2023-06-24T12:27:43;9.10;;;6.07;;
21777;SDS011;11050;52.222;20.916;2023-06-24T12:30:10;6.85;;;5.15;;
21777;SDS011;11050;52.222;20.916;2023-06-24T12:32:37;9.40;;;5.55;;
21777;SDS011;11050;52.222;20.916;2023-06-24T12:35:04;7.40;;;5.45;;
21777;SDS011;11050;52.222;20.916;2023-06-24T12:37:33;5.43;;;4.82;;
21777;SDS011;11050;52.222;20.916;2023-06-24T12:40:00;6.35;;;5.63;;
21777;SDS011;11050;52.222;20.916;2023-06-24T12:42:27;7.05;;;5.50;;
21777;SDS011;11050;52.222;20.916;2023-06-24T12:44:52;8.63;;;5.57;;
21777;SDS011;11050;52.222;20.916;2023-06-24T12:47:19;8.48;;;5.30;;
21777;SDS011;11050;52.222;20.916;2023-06-24T12:49:46;7.78;;;5.45;;
21777;SDS011;11050;52.222;20.916;2023-06-24T12:52:12;7.80;;;5.50;;
21777;SDS011;11050;52.222;20.916;2023-06-24T12:54:39;6.90;;;5.50;;
21777;SDS011;11050;52.222;20.916;2023-06-24T12:57:05;8.23;;;5.85;;
21777;SDS011;11050;52.222;20.916;2023-06-24T12:59:31;8.98;;;5.47;;
21777;SDS011;11050;52.222;20.916;2023-06-24T13:01:57;9.07;;;5.53;;
21777;SDS011;11050;52.222;20.916;2023-06-24T13:04:22;6.47;;;5.28;;
21777;SDS011;11050;52.222;20.916;2023-06-24T13:06:49;6.32;;;5.13;;
21777;SDS011;11050;52.222;20.916;2023-06-24T13:09:16;9.68;;;5.68;;
21777;SDS011;11050;52.222;20.916;2023-06-24T13:11:42;5.95;;;4.68;;
21777;SDS011;11050;52.222;20.916;2023-06-24T13:14:08;8.90;;;4.75;;
21777;SDS011;11050;52.222;20.916;2023-06-24T13:16:35;6.07;;;4.47;;
21777;SDS011;11050;52.222;20.916;2023-06-24T13:19:04;4.82;;;4.32;;
21777;SDS011;11050;52.222;20.916;2023-06-24T13:21:29;5.25;;;4.28;;
21777;SDS011;11050;52.222;20.916;2023-06-24T13:23:55;5.75;;;4.45;;
21777;SDS011;11050;52.222;20.916;2023-06-24T13:26:21;5.70;;;4.40;;
21777;SDS011;11050;52.222;20.916;2023-06-24T13:28:47;4.00;;;3.60;;
21777;SDS011;11050;52.222;20.916;2023-06-24T13:31:14;4.43;;;4.00;;
21777;SDS011;11050;52.222;20.916;2023-06-24T13:33:40;4.72;;;3.65;;
21777;SDS011;11050;52.222;20.916;2023-06-24T13:36:06;4.00;;;3.60;;
21777;SDS011;11050;52.222;20.916;2023-06-24T13:38:37;4.43;;;3.78;;
21777;SDS011;11050;52.222;20.916;2023-06-24T13:41:03;6.90;;;3.53;;
21777;SDS011;11050;52.222;20.916;2023-06-24T13:43:28;5.10;;;3.65;;
21777;SDS011;11050;52.222;20.916;2023-06-24T13:45:54;6.72;;;3.47;;
21777;SDS011;11050;52.222;20.916;2023-06-24T13:48:20;3.65;;;3.10;;
21777;SDS011;11050;52.222;20.916;2023-06-24T13:50:46;9.77;;;4.13;;
21777;SDS011;11050;52.222;20.916;2023-06-24T13:53:11;4.95;;;3.67;;
21777;SDS011;11050;52.222;20.916;2023-06-24T13:55:37;4.47;;;4.03;;
21777;SDS011;11050;52.222;20.916;2023-06-24T13:58:03;6.45;;;3.90;;
21777;SDS011;11050;52.222;20.916;2023-06-24T14:00:29;6.05;;;4.32;;
21777;SDS011;11050;52.222;20.916;2023-06-24T14:02:55;5.75;;;4.45;;
21777;SDS011;11050;52.222;20.916;2023-06-24T14:05:20;7.72;;;4.53;;
21777;SDS011;11050;52.222;20.916;2023-06-24T14:07:46;5.15;;;4.03;;
21777;SDS011;11050;52.222;20.916;2023-06-24T14:10:12;5.55;;;4.10;;
21777;SDS011;11050;52.222;20.916;2023-06-24T14:12:38;5.53;;;4.43;;
21777;SDS011;11050;52.222;20.916;2023-06-24T14:15:07;4.82;;;4.28;;
21777;SDS011;11050;52.222;20.916;2023-06-24T14:17:34;5.43;;;3.90;;
21777;SDS011;11050;52.222;20.916;2023-06-24T14:20:00;7.63;;;5.80;;
21777;SDS011;11050;52.222;20.916;2023-06-24T14:22:26;7.25;;;5.10;;
21777;SDS011;11050;52.222;20.916;2023-06-24T14:24:51;6.30;;;4.60;;
21777;SDS011;11050;52.222;20.916;2023-06-24T14:27:17;6.50;;;4.85;;
21777;SDS011;11050;52.222;20.916;2023-06-24T14:29:43;6.78;;;4.80;;
21777;SDS011;11050;52.222;20.916;2023-06-24T14:32:09;9.70;;;5.07;;
21777;SDS011;11050;52.222;20.916;2023-06-24T14:34:34;5.38;;;4.38;;
21777;SDS011;11050;52.222;20.916;2023-06-24T14:37:00;7.22;;;4.82;;
21777;SDS011;11050;52.222;20.916;2023-06-24T14:39:26;7.50;;;5.43;;
21777;SDS011;11050;52.222;20.916;2023-06-24T14:41:53;5.32;;;4.75;;
21777;SDS011;11050;52.222;20.916;2023-06-24T14:44:19;7.85;;;5.50;;
21777;SDS011;11050;52.222;20.916;2023-06-24T14:46:44;7.47;;;4.85;;
21777;SDS011;11050;52.222;20.916;2023-06-24T14:49:10;10.23;;;5.18;;
21777;SDS011;11050;52.222;20.916;2023-06-24T14:51:36;7.05;;;5.18;;
21777;SDS011;11050;52.222;20.916;2023-06-24T14:54:02;7.78;;;5.30;;
21777;SDS011;11050;52.222;20.916;2023-06-24T14:56:27;9.50;;;5.35;;
21777;SDS011;11050;52.222;20.916;2023-06-24T14:58:53;12.45;;;5.85;;